createdAt,value
2022-11-06T00:00:54.337Z,3.60
2022-11-06T00:03:21.624Z,2.85
2022-11-06T00:06:14.235Z,3.58
2022-11-06T00:08:48.198Z,3.38
2022-11-06T00:11:17.665Z,3.85
2022-11-06T00:13:51.333Z,4.32
2022-11-06T00:16:18.506Z,2.95
2022-11-06T00:18:45.977Z,4.20
2022-11-06T00:21:24.210Z,3.05
2022-11-06T00:26:26.369Z,3.28
2022-11-06T00:28:53.929Z,3.40
2022-11-06T00:33:55.219Z,2.90
2022-11-06T00:36:23.240Z,3.85
2022-11-06T00:39:00.250Z,4.03
2022-11-06T00:41:27.858Z,3.35
2022-11-06T00:46:28.218Z,3.33
2022-11-06T00:48:55.655Z,3.97
2022-11-06T00:51:32.248Z,3.50
2022-11-06T00:54:00.675Z,3.20
2022-11-06T00:56:41.372Z,3.83
2022-11-06T00:59:15.241Z,3.83
2022-11-06T01:01:50.304Z,4.20
2022-11-06T01:04:25.232Z,4.22
2022-11-06T01:07:00.211Z,4.78
2022-11-06T01:09:35.237Z,4.35
2022-11-06T01:12:17.672Z,4.90
2022-11-06T01:14:51.220Z,3.95
2022-11-06T01:17:18.395Z,3.78
2022-11-06T01:19:52.273Z,4.63
2022-11-06T01:22:19.559Z,3.60
2022-11-06T01:24:46.864Z,3.70
2022-11-06T01:27:27.832Z,4.35
2022-11-06T01:29:55.372Z,4.15
2022-11-06T01:32:29.225Z,3.65
2022-11-06T01:34:56.458Z,4.10
2022-11-06T01:37:30.393Z,4.57
2022-11-06T01:39:57.595Z,3.60
2022-11-06T01:42:24.812Z,4.07
2022-11-06T01:45:17.264Z,3.90
2022-11-06T01:47:44.613Z,3.95
2022-11-06T01:50:12.983Z,3.88
2022-11-06T01:52:47.219Z,4.90
2022-11-06T01:55:17.020Z,4.30
2022-11-06T01:57:51.225Z,3.67
2022-11-06T02:00:20.153Z,3.60
2022-11-06T02:02:54.610Z,4.03
2022-11-06T02:05:22.038Z,4.45
2022-11-06T02:07:49.429Z,3.72
2022-11-06T02:10:23.229Z,3.38
2022-11-06T02:13:05.820Z,3.97
2022-11-06T02:15:42.242Z,4.35
2022-11-06T02:18:15.971Z,3.33
2022-11-06T02:21:08.310Z,4.82
2022-11-06T02:23:56.998Z,3.53
2022-11-06T02:26:36.264Z,4.32
2022-11-06T02:29:06.353Z,3.70
2022-11-06T02:31:35.827Z,3.58
2022-11-06T02:34:12.244Z,3.60
2022-11-06T02:36:41.733Z,3.65
2022-11-06T02:39:18.245Z,4.32
2022-11-06T02:41:46.821Z,3.42
2022-11-06T02:44:25.255Z,3.47
2022-11-06T02:46:57.558Z,3.75
2022-11-06T02:49:40.440Z,3.58
2022-11-06T02:52:11.125Z,3.85
2022-11-06T02:54:48.383Z,3.88
2022-11-06T02:57:23.328Z,3.73
2022-11-06T03:00:13.405Z,3.80
2022-11-06T03:02:42.804Z,4.07
2022-11-06T03:05:37.505Z,3.65
2022-11-06T03:08:10.902Z,4.00
2022-11-06T03:11:07.400Z,4.28
2022-11-06T03:13:44.782Z,4.93
2022-11-06T03:16:41.291Z,4.35
2022-11-06T03:19:28.675Z,3.38
2022-11-06T03:22:35.310Z,3.45
2022-11-06T03:25:08.630Z,3.90
2022-11-06T03:27:46.619Z,4.15
2022-11-06T03:30:16.716Z,4.03
2022-11-06T03:32:59.314Z,4.93
2022-11-06T03:35:32.129Z,4.35
2022-11-06T03:38:17.422Z,3.75
2022-11-06T03:40:47.760Z,3.78
2022-11-06T03:43:16.745Z,4.47
2022-11-06T03:45:51.284Z,4.32
2022-11-06T03:48:29.163Z,5.35
2022-11-06T03:51:12.265Z,4.03
2022-11-06T03:53:44.119Z,5.05
2022-11-06T03:56:21.261Z,4.07
2022-11-06T03:58:56.400Z,4.18
2022-11-06T04:01:32.430Z,4.63
2022-11-06T04:04:05.055Z,5.18
2022-11-06T04:06:50.426Z,4.63
2022-11-06T04:09:38.166Z,4.80
2022-11-06T04:12:30.306Z,5.07
2022-11-06T04:14:58.612Z,4.97
2022-11-06T04:17:35.285Z,4.80
2022-11-06T04:20:04.083Z,4.47
2022-11-06T04:22:52.285Z,5.25
2022-11-06T04:25:56.925Z,6.85
2022-11-06T04:28:30.325Z,6.53
2022-11-06T04:31:17.339Z,6.55
2022-11-06T04:33:53.280Z,7.32
2022-11-06T04:36:39.006Z,6.70
2022-11-06T04:39:31.296Z,6.43
2022-11-06T04:42:11.981Z,7.55
2022-11-06T04:44:51.292Z,6.45
2022-11-06T04:47:20.156Z,5.95
2022-11-06T04:49:56.313Z,6.45
2022-11-06T04:52:25.471Z,6.70
2022-11-06T04:55:00.314Z,6.70
2022-11-06T04:57:34.238Z,7.45
2022-11-06T05:00:08.445Z,6.72
2022-11-06T05:02:35.569Z,6.63
2022-11-06T05:05:02.756Z,6.50
2022-11-06T05:07:36.374Z,7.00
2022-11-06T05:10:03.659Z,6.97
2022-11-06T05:12:37.421Z,6.65
2022-11-06T05:15:04.784Z,7.60
2022-11-06T05:17:36.309Z,7.70
2022-11-06T05:20:10.285Z,7.50
2022-11-06T05:23:00.744Z,7.00
2022-11-06T05:25:36.346Z,8.13
2022-11-06T05:28:05.827Z,7.43
2022-11-06T05:30:33.022Z,7.97
2022-11-06T05:33:07.307Z,9.15
2022-11-06T05:35:34.503Z,9.70
2022-11-06T05:38:11.572Z,9.45
2022-11-06T05:40:39.047Z,9.43
2022-11-06T05:43:12.516Z,9.82
2022-11-06T05:45:39.810Z,11.32
2022-11-06T05:48:07.082Z,11.60
2022-11-06T05:50:40.528Z,10.35
2022-11-06T05:53:07.727Z,11.00
2022-11-06T05:55:41.650Z,11.73
2022-11-06T05:58:15.783Z,10.65
2022-11-06T06:00:50.324Z,11.70
2022-11-06T06:03:17.500Z,9.48
2022-11-06T06:05:44.613Z,9.73
2022-11-06T06:08:18.404Z,9.45
2022-11-06T06:10:46.182Z,8.93
2022-11-06T06:13:20.449Z,9.43
2022-11-06T06:15:47.521Z,8.77
2022-11-06T06:18:15.273Z,8.25
2022-11-06T06:20:49.303Z,8.80
2022-11-06T06:23:16.735Z,8.52
2022-11-06T06:25:50.450Z,8.95
2022-11-06T06:28:17.690Z,8.25
2022-11-06T06:30:47.821Z,9.40
2022-11-06T06:33:21.300Z,9.75
2022-11-06T06:35:48.732Z,9.63
2022-11-06T06:38:22.611Z,9.18
2022-11-06T06:40:51.113Z,8.90
2022-11-06T06:43:18.219Z,9.00
2022-11-06T06:45:52.381Z,8.23
2022-11-06T06:48:19.686Z,7.68
2022-11-06T06:50:53.474Z,7.72
2022-11-06T06:53:20.670Z,6.57
2022-11-06T06:55:47.833Z,5.70
2022-11-06T06:58:21.681Z,5.35
2022-11-06T07:00:49.033Z,4.72
2022-11-06T07:03:22.572Z,5.50
2022-11-06T07:05:49.654Z,5.38
2022-11-06T07:08:17.051Z,4.88
2022-11-06T07:10:50.324Z,5.55
2022-11-06T07:13:17.575Z,4.32
2022-11-06T07:15:51.363Z,4.35
2022-11-06T07:18:18.582Z,4.15
2022-11-06T07:20:47.456Z,4.82
2022-11-06T07:23:21.387Z,4.30
2022-11-06T07:25:54.586Z,4.13
2022-11-06T07:28:28.364Z,3.10
2022-11-06T07:30:59.362Z,2.45
2022-11-06T07:33:26.520Z,3.20
2022-11-06T07:36:00.337Z,2.40
2022-11-06T07:38:27.509Z,2.30
2022-11-06T07:41:01.361Z,1.38
2022-11-06T07:43:28.598Z,2.20
2022-11-06T07:46:05.358Z,1.73
2022-11-06T07:48:33.049Z,1.40
2022-11-06T07:51:08.465Z,1.65
2022-11-06T07:53:35.821Z,1.27
2022-11-06T07:56:03.175Z,1.50
2022-11-06T07:58:37.328Z,1.23
2022-11-06T08:01:04.802Z,1.00
2022-11-06T08:03:32.118Z,1.20
2022-11-06T08:06:06.350Z,1.15
2022-11-06T08:08:33.661Z,1.02
2022-11-06T08:11:11.465Z,1.20
2022-11-06T08:13:39.200Z,1.10
2022-11-06T08:16:06.441Z,1.02
2022-11-06T08:18:40.470Z,1.13
2022-11-06T08:21:08.357Z,0.90
2022-11-06T08:23:42.521Z,0.77
2022-11-06T08:26:09.703Z,0.70
2022-11-06T08:28:36.857Z,0.50
2022-11-06T08:31:14.381Z,0.70
2022-11-06T08:33:41.675Z,0.75
2022-11-06T08:36:09.894Z,0.55
2022-11-06T08:38:43.510Z,1.05
2022-11-06T08:41:13.828Z,0.80
2022-11-06T08:43:47.345Z,0.73
2022-11-06T08:46:15.259Z,0.93
2022-11-06T08:48:49.418Z,0.75
2022-11-06T08:51:16.570Z,0.88
2022-11-06T08:53:50.563Z,0.73
2022-11-06T08:56:18.084Z,0.80
2022-11-06T08:58:59.373Z,1.00
2022-11-06T09:01:33.523Z,1.00
2022-11-06T09:04:00.801Z,1.23
2022-11-06T09:06:28.093Z,1.20
2022-11-06T09:09:02.368Z,1.75
2022-11-06T09:11:29.555Z,1.67
2022-11-06T09:14:03.514Z,1.92
2022-11-06T09:16:30.772Z,1.75
2022-11-06T09:18:58.428Z,1.92
2022-11-06T09:21:32.363Z,2.22
2022-11-06T09:23:59.678Z,1.92
2022-11-06T09:26:33.398Z,2.58
2022-11-06T09:29:07.399Z,3.35
2022-11-06T09:31:49.529Z,3.45
2022-11-06T09:34:16.715Z,3.83
2022-11-06T09:36:48.666Z,3.88
2022-11-06T09:39:22.364Z,4.90
2022-11-06T09:41:52.090Z,5.88
2022-11-06T09:44:34.377Z,5.57
2022-11-06T09:47:04.226Z,6.20
2022-11-06T09:49:37.405Z,6.25
2022-11-06T09:52:08.861Z,6.97
2022-11-06T09:55:03.363Z,5.25
2022-11-06T09:57:45.514Z,5.80
2022-11-06T10:00:27.370Z,4.93
2022-11-06T10:02:56.415Z,5.00
2022-11-06T10:05:43.459Z,4.72
2022-11-06T10:08:22.211Z,5.32
2022-11-06T10:11:06.530Z,3.78
2022-11-06T10:13:42.565Z,4.15
2022-11-06T10:16:34.576Z,3.40
2022-11-06T10:19:19.924Z,3.97
2022-11-06T10:22:09.790Z,3.28
2022-11-06T10:24:47.065Z,3.13
2022-11-06T10:27:33.461Z,3.00
2022-11-06T10:30:00.771Z,2.22
2022-11-06T10:32:34.564Z,2.83
2022-11-06T10:35:07.405Z,3.05
2022-11-06T10:37:46.636Z,2.83
2022-11-06T10:40:22.891Z,2.05
2022-11-06T10:43:02.508Z,2.45
2022-11-06T10:45:30.169Z,2.25
2022-11-06T10:48:09.668Z,2.00
2022-11-06T10:50:50.842Z,2.25
2022-11-06T10:53:41.709Z,2.15
2022-11-06T10:56:20.872Z,1.70
2022-11-06T10:59:01.505Z,1.88
2022-11-06T11:01:35.597Z,1.95
2022-11-06T11:04:03.059Z,2.15
2022-11-06T11:06:36.547Z,1.70
2022-11-06T11:09:23.748Z,2.30
2022-11-06T11:11:57.434Z,1.60
2022-11-06T11:14:28.916Z,1.70
2022-11-06T11:16:56.458Z,1.38
2022-11-06T11:21:59.852Z,2.00
2022-11-06T11:24:33.480Z,2.10
2022-11-06T11:27:02.572Z,1.88
2022-11-06T11:29:38.609Z,2.17
2022-11-06T11:32:07.530Z,1.85
2022-11-06T11:34:56.301Z,1.58
2022-11-06T11:37:35.420Z,2.00
2022-11-06T11:40:29.574Z,1.70
2022-11-06T11:43:15.999Z,1.70
2022-11-06T11:45:49.707Z,1.80
2022-11-06T11:48:17.263Z,1.70
2022-11-06T11:50:44.489Z,2.38
2022-11-06T11:53:21.641Z,1.98
2022-11-06T11:55:49.966Z,2.15
2022-11-06T11:58:35.563Z,2.38
2022-11-06T12:01:04.013Z,2.20
2022-11-06T12:03:58.586Z,2.50
2022-11-06T12:06:25.837Z,2.35
2022-11-06T12:08:54.559Z,2.17
2022-11-06T12:11:31.598Z,2.40
2022-11-06T12:14:27.170Z,2.40
2022-11-06T12:17:03.626Z,2.67
2022-11-06T12:19:32.523Z,2.20
2022-11-06T12:22:02.078Z,2.30
2022-11-06T12:24:45.612Z,2.58
2022-11-06T12:27:39.433Z,2.15
2022-11-06T12:30:14.565Z,1.98
2022-11-06T12:32:44.882Z,2.20
2022-11-06T12:35:38.513Z,2.03
2022-11-06T12:38:12.384Z,2.08
2022-11-06T12:40:47.512Z,2.35
2022-11-06T12:43:17.364Z,2.08
2022-11-06T12:46:03.604Z,2.58
2022-11-06T12:48:49.562Z,2.72
2022-11-06T12:51:26.565Z,2.05
2022-11-06T12:54:12.401Z,3.08
2022-11-06T12:56:49.528Z,2.85
2022-11-06T12:59:29.428Z,2.38
2022-11-06T13:02:13.725Z,1.70
2022-11-06T13:04:41.533Z,2.63
2022-11-06T13:07:21.732Z,3.08
2022-11-06T13:10:02.838Z,2.15
2022-11-06T13:12:42.533Z,2.50
2022-11-06T13:15:09.661Z,2.30
2022-11-06T13:17:54.648Z,2.90
2022-11-06T13:20:27.935Z,2.90
2022-11-06T13:23:09.531Z,2.67
2022-11-06T13:26:03.996Z,2.30
2022-11-06T13:28:50.039Z,2.58
2022-11-06T13:31:19.179Z,2.10
2022-11-06T13:33:57.519Z,3.05
2022-11-06T13:36:24.849Z,2.78
2022-11-06T13:39:01.660Z,2.70
2022-11-06T13:41:30.341Z,2.63
2022-11-06T13:44:05.577Z,3.22
2022-11-06T13:46:52.719Z,2.35
2022-11-06T13:49:29.522Z,2.17
2022-11-06T13:52:01.450Z,2.90
2022-11-06T13:54:42.598Z,2.63
2022-11-06T13:57:34.551Z,2.97
2022-11-06T14:00:19.619Z,2.50
2022-11-06T14:03:05.717Z,2.97
2022-11-06T14:05:45.559Z,2.70
2022-11-06T14:08:22.340Z,2.72
2022-11-06T14:10:59.548Z,2.50
2022-11-06T14:13:32.068Z,2.90
2022-11-06T14:16:06.561Z,2.50
2022-11-06T14:18:34.502Z,2.58
2022-11-06T14:21:40.669Z,2.70
2022-11-06T14:24:15.032Z,2.50
2022-11-06T14:26:53.592Z,2.92
2022-11-06T14:29:29.654Z,2.50
2022-11-06T14:32:07.556Z,2.72
2022-11-06T14:34:35.306Z,2.35
2022-11-06T14:37:30.951Z,2.72
2022-11-06T14:39:58.449Z,2.85
2022-11-06T14:42:35.665Z,2.53
2022-11-06T14:45:08.990Z,3.35
2022-11-06T14:47:46.610Z,3.28
2022-11-06T14:50:19.576Z,2.70
2022-11-06T14:52:55.621Z,3.00
2022-11-06T14:55:42.988Z,2.80
2022-11-06T14:58:40.682Z,3.15
2022-11-06T15:01:10.774Z,3.35
2022-11-06T15:03:50.723Z,3.25
2022-11-06T15:06:17.786Z,3.15
2022-11-06T15:08:57.772Z,3.03
2022-11-06T15:11:30.731Z,3.15
2022-11-06T15:14:24.565Z,3.63
2022-11-06T15:16:55.303Z,3.05
2022-11-06T15:19:30.576Z,3.72
2022-11-06T15:22:03.839Z,4.00
2022-11-06T15:24:41.681Z,3.55
2022-11-06T15:27:12.757Z,4.55
2022-11-06T15:29:51.578Z,4.20
2022-11-06T15:32:26.457Z,3.50
2022-11-06T15:35:04.613Z,3.70
2022-11-06T15:37:33.423Z,4.45
2022-11-06T15:40:01.610Z,4.00
2022-11-06T15:42:37.616Z,4.38
2022-11-06T15:45:14.613Z,4.28
2022-11-06T15:47:42.527Z,5.20
2022-11-06T15:50:23.671Z,4.20
2022-11-06T15:52:51.054Z,4.65
2022-11-06T15:55:38.546Z,4.10
2022-11-06T15:58:18.853Z,4.90
2022-11-06T16:00:53.658Z,5.50
2022-11-06T16:03:25.394Z,5.00
2022-11-06T16:06:00.639Z,4.55
2022-11-06T16:08:29.705Z,5.13
2022-11-06T16:10:57.969Z,5.20
2022-11-06T16:13:32.601Z,4.88
2022-11-06T16:16:00.798Z,5.35
2022-11-06T16:18:40.655Z,5.95
2022-11-06T16:21:13.782Z,6.13
2022-11-06T16:23:49.655Z,6.35
2022-11-06T16:26:22.955Z,6.20
2022-11-06T16:28:57.723Z,5.63
2022-11-06T16:31:29.147Z,6.07
2022-11-06T16:34:06.757Z,5.72
2022-11-06T16:36:50.432Z,5.60
2022-11-06T16:39:35.295Z,6.57
2022-11-06T16:42:23.535Z,6.60
2022-11-06T16:45:04.558Z,6.50
2022-11-06T16:47:38.520Z,7.00
2022-11-06T16:50:25.715Z,5.65
2022-11-06T16:53:00.520Z,5.63
2022-11-06T16:55:28.545Z,6.60
2022-11-06T16:58:13.511Z,6.78
2022-11-06T17:00:55.846Z,6.80
2022-11-06T17:03:29.509Z,7.45
2022-11-06T17:05:58.169Z,7.63
2022-11-06T17:08:58.517Z,7.47
2022-11-06T17:11:25.833Z,8.07
2022-11-06T17:13:59.524Z,7.03
2022-11-06T17:16:27.783Z,8.55
2022-11-06T17:19:01.520Z,7.60
2022-11-06T17:21:28.745Z,7.93
2022-11-06T17:24:31.167Z,7.15
2022-11-06T17:26:50.777Z,8.50
2022-11-06T17:29:24.550Z,7.90
2022-11-06T17:31:51.988Z,7.57
2022-11-06T17:34:25.559Z,9.38
2022-11-06T17:36:52.810Z,9.13
2022-11-06T17:39:19.953Z,7.88
2022-11-06T17:41:53.597Z,9.55
2022-11-06T17:44:22.391Z,8.70
2022-11-06T17:46:56.608Z,9.95
2022-11-06T17:49:23.825Z,10.00
2022-11-06T17:51:59.707Z,10.23
2022-11-06T17:54:28.318Z,11.48
2022-11-06T17:57:03.592Z,11.75
2022-11-06T17:59:37.604Z,12.10
2022-11-06T18:02:11.849Z,11.52
2022-11-06T18:04:39.120Z,9.40
2022-11-06T18:07:06.293Z,10.52
2022-11-06T18:09:39.684Z,10.15
2022-11-06T18:12:08.798Z,9.40
2022-11-06T18:14:42.724Z,10.10
2022-11-06T18:17:10.119Z,10.20
2022-11-06T18:19:37.400Z,11.32
2022-11-06T18:22:11.869Z,9.98
2022-11-06T18:24:39.900Z,10.85
2022-11-06T18:27:13.796Z,10.93
2022-11-06T18:29:41.056Z,10.90
2022-11-06T18:32:08.141Z,10.80
2022-11-06T18:34:41.813Z,9.55
2022-11-06T18:37:09.021Z,10.73
2022-11-06T18:39:42.807Z,12.00
2022-11-06T18:42:10.002Z,11.32
2022-11-06T18:44:41.424Z,10.43
2022-11-06T18:47:15.617Z,11.15
2022-11-06T18:49:42.930Z,10.55
2022-11-06T18:52:32.509Z,12.15
2022-11-06T18:55:04.329Z,10.23
2022-11-06T19:00:19.545Z,9.98
2022-11-06T19:03:00.748Z,10.80
2022-11-06T19:05:28.128Z,10.88
2022-11-06T19:08:01.869Z,10.88
2022-11-06T19:10:31.146Z,11.90
2022-11-06T19:12:59.639Z,11.93
2022-11-06T19:15:33.835Z,12.35
2022-11-06T19:18:01.256Z,12.70
2022-11-06T19:20:34.639Z,11.73
2022-11-06T19:23:01.720Z,13.10
2022-11-06T19:25:35.710Z,11.68
2022-11-06T19:28:03.259Z,11.45
2022-11-06T19:33:04.590Z,11.23
2022-11-06T19:35:39.731Z,12.65
2022-11-06T19:38:07.225Z,11.75
2022-11-06T19:40:34.355Z,11.18
2022-11-06T19:43:10.885Z,11.77
2022-11-06T19:45:38.240Z,11.80
2022-11-06T19:48:12.808Z,10.95
2022-11-06T19:50:59.371Z,11.18
2022-11-06T19:53:33.642Z,11.27
2022-11-06T19:56:03.697Z,12.00
2022-11-06T19:58:43.738Z,12.32
2022-11-06T20:01:19.628Z,11.90
2022-11-06T20:03:46.972Z,13.05
2022-11-06T20:06:14.570Z,12.65
2022-11-06T20:11:22.671Z,11.38
2022-11-06T20:14:02.647Z,12.98
2022-11-06T20:16:29.914Z,12.55
2022-11-06T20:19:05.774Z,12.18
2022-11-06T20:21:33.115Z,13.40
2022-11-06T20:24:00.472Z,12.90
2022-11-06T20:26:34.644Z,12.80
2022-11-06T20:29:01.822Z,13.70
2022-11-06T20:31:35.646Z,13.13
2022-11-06T20:34:02.980Z,12.93
2022-11-06T20:36:37.824Z,13.85
2022-11-06T20:39:05.075Z,12.60
2022-11-06T20:41:45.846Z,14.55
2022-11-06T20:44:13.054Z,13.82
2022-11-06T20:46:40.535Z,14.73
2022-11-06T20:49:14.716Z,16.08
2022-11-06T20:52:14.007Z,15.65
2022-11-06T20:54:48.685Z,15.68
2022-11-06T20:57:16.744Z,15.57
2022-11-06T20:59:56.867Z,17.10
2022-11-06T21:02:24.170Z,16.67
2022-11-06T21:04:51.369Z,16.00
2022-11-06T21:07:24.677Z,15.82
2022-11-06T21:09:51.883Z,16.23
2022-11-06T21:12:25.747Z,15.95
2022-11-06T21:14:52.936Z,17.00
2022-11-06T21:17:26.744Z,16.33
2022-11-06T21:19:54.029Z,17.67
2022-11-06T21:22:27.712Z,17.45
2022-11-06T21:24:54.875Z,18.23
2022-11-06T21:27:22.036Z,14.77
2022-11-06T21:29:55.798Z,16.42
2022-11-06T21:32:23.151Z,15.52
2022-11-06T21:34:56.801Z,15.10
2022-11-06T21:37:32.819Z,15.48
2022-11-06T21:40:06.895Z,14.68
2022-11-06T21:42:34.099Z,13.10
2022-11-06T21:45:01.314Z,12.02
2022-11-06T21:47:34.697Z,11.27
2022-11-06T21:50:01.809Z,10.15
2022-11-06T21:52:54.893Z,9.35
2022-11-06T21:55:40.684Z,8.90
2022-11-06T21:58:15.025Z,7.97
2022-11-06T22:00:56.615Z,7.43
2022-11-06T22:03:24.022Z,6.60
2022-11-06T22:05:57.773Z,6.40
2022-11-06T22:08:29.560Z,5.70
2022-11-06T22:10:57.591Z,5.47
2022-11-06T22:13:31.810Z,5.20
2022-11-06T22:16:01.555Z,5.18
2022-11-06T22:18:35.699Z,4.60
2022-11-06T22:21:06.940Z,5.03
2022-11-06T22:23:40.746Z,3.88
2022-11-06T22:26:09.053Z,4.07
2022-11-06T22:28:36.537Z,3.70
2022-11-06T22:31:10.724Z,3.58
2022-11-06T22:33:38.122Z,3.45
2022-11-06T22:36:13.827Z,2.80
2022-11-06T22:38:41.805Z,3.20
2022-11-06T22:41:10.666Z,2.83
2022-11-06T22:43:44.700Z,2.42
2022-11-06T22:46:13.683Z,2.53
2022-11-06T22:48:47.833Z,2.67
2022-11-06T22:51:22.619Z,2.10
2022-11-06T22:53:56.755Z,2.67
2022-11-06T22:56:24.762Z,2.38
2022-11-06T22:59:06.705Z,1.83
2022-11-06T23:01:37.383Z,2.15
2022-11-06T23:04:15.908Z,2.13
2022-11-06T23:06:43.918Z,1.80
2022-11-06T23:09:17.907Z,2.28
2022-11-06T23:11:46.262Z,2.10
2022-11-06T23:14:13.389Z,2.30
2022-11-06T23:17:05.867Z,3.35
2022-11-06T23:19:33.245Z,3.70
2022-11-06T23:22:25.870Z,4.55
2022-11-06T23:24:53.141Z,6.03
2022-11-06T23:27:20.689Z,7.50
2022-11-06T23:32:22.318Z,9.07
2022-11-06T23:37:23.357Z,9.15
2022-11-06T23:39:50.471Z,9.65
2022-11-06T23:42:24.806Z,10.82
2022-11-06T23:45:10.567Z,11.20
2022-11-06T23:47:44.809Z,10.00
2022-11-06T23:50:12.000Z,11.88
2022-11-06T23:52:45.874Z,10.98
2022-11-06T23:55:13.139Z,12.05
2022-11-06T23:57:40.301Z,11.60
